This is the latest recevied weather packets stored in our database for station/object N3TCR-13. If no packets are shown the sender has not sent any weather packets the latest 10 day(s).
| Time | Temp. | Humidity | Pressure | Rain* | Wind** | Luminosity | Snow |
|---|---|---|---|---|---|---|---|
| 1777709721 | 7.78° C | 100% | 997.3 hPa | 0 mm | - | - | - |
| 1777708817 | 8.33° C | 100% | 997.2 hPa | 0 mm | - | - | - |
| 1777706117 | 9.44° C | 100% | 997.3 hPa | 0 mm | - | - | - |
| 1777700737 | 10° C | 100% | 997.4 hPa | 0.25 mm | - | - | - |
| 1777697117 | 10.56° C | 100% | 997.2 hPa | 0 mm | - | - | - |
| 1777693517 | 10.56° C | 100% | 996.9 hPa | 0.25 mm | - | - | - |
| 1777691717 | 11.67° C | 99% | 996.7 hPa | 0.25 mm | - | - | - |
| 1777689917 | 12.22° C | 89% | 996.1 hPa | 0 mm | - | - | - |
| 1777686322 | 14.44° C | 52% | 995.2 hPa | 0 mm | - | - | - |
| 1777679117 | 15.56° C | 46% | 993.7 hPa | 0 mm | - | - | - |
| 1777669217 | 18.33° C | 33% | 993.9 hPa | 0 mm | - | - | - |
| 1777662917 | 18.33° C | 38% | 995.2 hPa | 0 mm | - | - | - |
| 1777662037 | 18.33° C | 38% | 995.5 hPa | 0 mm | - | - | - |
| 1777658416 | 18.33° C | 41% | 996.3 hPa | 0 mm | - | - | - |
| 1777656616 | 17.22° C | 44% | 996.6 hPa | 0 mm | - | - | - |
| 1777648517 | 15° C | 54% | 998.1 hPa | 0 mm | - | - | - |
| 1777637717 | 8.33° C | 100% | 999.1 hPa | 0 mm | - | - | - |
| 1777635017 | 5.56° C | 100% | 998.9 hPa | 0 mm | - | - | - |
| 1777624216 | 2.78° C | 100% | 998.6 hPa | 0 mm | - | - | - |
| 1777614317 | 5° C | 100% | 998.5 hPa | 0 mm | - | - | - |
| 1777612517 | 5.56° C | 100% | 998.5 hPa | 0 mm | - | - | - |
| 1777603517 | 7.22° C | 95% | 998 hPa | 0 mm | - | - | - |
| 1777599018 | 8.33° C | 86% | 997.4 hPa | 0 mm | - | - | - |
| 1777597217 | 8.89° C | 84% | 997.2 hPa | 0 mm | - | - | - |
| 1777590017 | 13.33° C | 60% | 994.9 hPa | 0 mm | - | - | - |
* Rain latest hour (hover to see other rain measurements)
** Current wind speed in m/s (hover to see current wind gust speed)